Scott Camp — WDF3203 — position and weather

sailwx.info

Track history (hours):
 
Tides and Currents Weather Stations Pressure Air Temp Water Temp Dewpoint Dewpoint Depression Visibility Wind Speed Wind Dir Waves Ship Positions

Scott Camp

Owner: Florida Marine Transporters, Inc., Mandeville, LA. More information available from US FCC via Universal Licensing System and Coast Guard Vessel Documentation Center.

Last reported at 2017-Dec-11 01:30 UTC. Time now 2017-Dec-11 01:58 UTC.
Position N 28°01' W 097°01'.

Length 27 m; draft 3.2 m.

Type: Towing. MMSI: 367437150.

Date/timePositionNaut miles runAvg speedWind from/ knotsBaromVisibWave heightAir tempDewpointWater temp
2017-Dec-11 01:30N 28°01' W 097°01'4 6.9
2017-Dec-11 00:59N 28°04' W 096°58'6 6.4
2017-Dec-11 00:06N 28°08' W 096°54'2 3.3
2017-Dec-10 23:21N 28°10' W 096°52'0 0.0
2017-Dec-10 22:58N 28°10' W 096°52'2 4.6
2017-Dec-10 22:29N 28°11' W 096°50'198 4.7
2017-Dec-09 04:24N 30°03' W 093°43'2 5.3
2017-Dec-09 04:00N 30°04' W 093°40'2 4.4
2017-Dec-09 03:30N 30°04' W 093°38'2 4.9
2017-Dec-09 03:00N 30°04' W 093°35'2 4.7
2017-Dec-09 02:30N 30°04' W 093°32'2 4.2
2017-Dec-09 02:00N 30°04' W 093°30'2 4.3
2017-Dec-09 01:30N 30°04' W 093°27'2 5.0
2017-Dec-09 01:00N 30°04' W 093°25'2 4.9
2017-Dec-09 00:30N 30°04' W 093°22'1 1.9
2017-Dec-09 00:00N 30°04' W 093°21'0 0.3
2017-Dec-08 23:30N 30°04' W 093°21'0 0.2
2017-Dec-08 23:01N 30°04' W 093°21'0 0.2
2017-Dec-08 22:30N 30°04' W 093°21'1 1.7
2017-Dec-08 22:00N 30°05' W 093°20'0 0.0
2017-Dec-08 21:30N 30°05' W 093°20'1 1.7
2017-Dec-08 21:00N 30°04' W 093°21'0 0.0
2017-Dec-08 20:30N 30°04' W 093°21'0 0.0
2017-Dec-08 20:00N 30°04' W 093°21'0 0.0
2017-Dec-08 19:30N 30°04' W 093°21'0 0.0
2017-Dec-08 19:00N 30°04' W 093°21'0 0.0
2017-Dec-08 18:30N 30°04' W 093°21'0 0.0
2017-Dec-08 12:30N 30°04' W 093°21'0 0.0
2017-Dec-08 10:38N 30°04' W 093°21'0 0.0
2017-Dec-08 10:30N 30°04' W 093°21'0 0.0
2017-Dec-08 10:00N 30°04' W 093°21'0 0.0
2017-Dec-08 09:30N 30°04' W 093°21'0 0.0
2017-Dec-08 09:00N 30°04' W 093°21'0 0.0
2017-Dec-08 08:30N 30°04' W 093°21'0 0.0
2017-Dec-08 08:00N 30°04' W 093°21'0 0.0
2017-Dec-08 07:30N 30°04' W 093°21'0 0.0
2017-Dec-08 07:00N 30°04' W 093°21'0 0.0
2017-Dec-08 06:30N 30°04' W 093°21'0 0.0
2017-Dec-08 06:00N 30°04' W 093°21'0 0.0
2017-Dec-08 05:30N 30°04' W 093°21'0 0.0
2017-Dec-08 05:00N 30°04' W 093°21'0 0.0
2017-Dec-08 04:30N 30°04' W 093°21'0 0.0
2017-Dec-08 04:00N 30°04' W 093°21'0 0.0
2017-Dec-08 03:30N 30°04' W 093°21'1 1.4
2017-Dec-08 03:00N 30°04' W 093°21'0 0.0
2017-Dec-08 02:30N 30°04' W 093°21'0 0.0
2017-Dec-08 02:00N 30°04' W 093°21'0 0.0
2017-Dec-08 01:30N 30°04' W 093°21'0 0.0
2017-Dec-08 01:00N 30°04' W 093°21'0 0.0
2017-Dec-08 00:30N 30°04' W 093°21'0 0.0
2017-Dec-08 00:00N 30°04' W 093°21'0 0.0
2017-Dec-07 23:30N 30°04' W 093°21'0 0.0
2017-Dec-07 23:00N 30°04' W 093°21'0 0.0
2017-Dec-07 22:30N 30°04' W 093°21'0 0.0
2017-Dec-07 22:00N 30°04' W 093°21'0 0.0
2017-Dec-07 21:30N 30°04' W 093°21'0 0.0
2017-Dec-07 21:00N 30°04' W 093°21'0 0.0
2017-Dec-07 20:30N 30°04' W 093°21'0 0.0
2017-Dec-07 20:00N 30°04' W 093°21'0 0.0
2017-Dec-07 19:30N 30°04' W 093°21'0 0.0
2017-Dec-07 19:00N 30°04' W 093°21'0 0.0
2017-Dec-07 18:30N 30°04' W 093°21'0 0.0
2017-Dec-07 18:00N 30°04' W 093°21'0 0.0
2017-Dec-07 17:30N 30°04' W 093°21'0 0.0
2017-Dec-07 17:00N 30°04' W 093°21'0 0.0
2017-Dec-07 16:30N 30°04' W 093°21'1 1.4
2017-Dec-07 16:00N 30°04' W 093°21'0 0.0
2017-Dec-07 15:30N 30°04' W 093°21'0 0.0
2017-Dec-07 15:00N 30°04' W 093°21'0 0.0
2017-Dec-07 14:30N 30°04' W 093°21'0 0.0
2017-Dec-07 14:00N 30°04' W 093°21'0 0.0
2017-Dec-07 13:30N 30°04' W 093°21'0 0.0
2017-Dec-07 13:00N 30°04' W 093°21'0 0.0
2017-Dec-07 12:30N 30°04' W 093°21'0 0.0
2017-Dec-07 12:00N 30°04' W 093°21'0 0.0
2017-Dec-07 11:30N 30°04' W 093°21'0 0.0
2017-Dec-07 11:00N 30°04' W 093°21'0 0.0
2017-Dec-07 10:30N 30°04' W 093°21'0 0.0
2017-Dec-07 10:00N 30°04' W 093°21'0 0.0
2017-Dec-07 09:30N 30°04' W 093°21'0 0.0
2017-Dec-07 09:00N 30°04' W 093°21'0 0.0
2017-Dec-07 08:30N 30°04' W 093°21'0 0.0
2017-Dec-07 08:00N 30°04' W 093°21'0 0.0
2017-Dec-07 07:30N 30°04' W 093°21'0 0.0
2017-Dec-07 07:00N 30°04' W 093°21'0 0.0
2017-Dec-07 06:30N 30°04' W 093°21'0 0.0
2017-Dec-07 06:00N 30°04' W 093°21'0 0.0
2017-Dec-07 05:30N 30°04' W 093°21'0 0.0
2017-Dec-07 05:00N 30°04' W 093°21'0 0.0
2017-Dec-07 04:30N 30°04' W 093°21'0 0.0
2017-Dec-07 04:00N 30°04' W 093°21'0 0.0
2017-Dec-07 03:30N 30°04' W 093°21'0 0.0
2017-Dec-07 03:00N 30°04' W 093°21'0 0.0
2017-Dec-07 02:30N 30°04' W 093°21'1 2.6
2017-Dec-07 02:00N 30°05' W 093°20'1 0.5
2017-Dec-06 23:11N 30°04' W 093°21'0 0.0
2017-Dec-06 23:00N 30°04' W 093°21'0 0.0
2017-Dec-06 22:30N 30°04' W 093°21'0 0.0
2017-Dec-06 22:00N 30°04' W 093°21'0 0.0
2017-Dec-06 21:30N 30°04' W 093°21'0 0.0
2017-Dec-06 21:00N 30°04' W 093°21'  
2017-Dec-04 10:30N 30°10' W 093°19'0 0.0
2017-Dec-04 10:00N 30°10' W 093°19'0 0.0
2017-Dec-04 09:30N 30°10' W 093°19'0 0.0
2017-Dec-04 09:00N 30°10' W 093°19'0 0.0
2017-Dec-04 08:30N 30°10' W 093°19'0 0.0
2017-Dec-04 08:00N 30°10' W 093°19'0 0.0
2017-Dec-04 07:30N 30°10' W 093°19'0 0.0
2017-Dec-04 07:00N 30°10' W 093°19'0 0.0
2017-Dec-04 06:30N 30°10' W 093°19'0 0.0
2017-Dec-04 06:00N 30°10' W 093°19'0 0.0
2017-Dec-04 05:30N 30°10' W 093°19'0 0.0
2017-Dec-04 05:00N 30°10' W 093°19'0 0.0
2017-Dec-04 04:30N 30°10' W 093°19'0 0.0
2017-Dec-04 04:00N 30°10' W 093°19'0 0.0
2017-Dec-04 03:30N 30°10' W 093°19'0 0.0
2017-Dec-04 03:00N 30°10' W 093°19'0 0.0
2017-Dec-04 02:30N 30°10' W 093°19'0 0.0
2017-Dec-04 02:00N 30°10' W 093°19'0 0.0
2017-Dec-04 01:30N 30°10' W 093°19'0 0.1
2017-Dec-04 01:00N 30°10' W 093°20'2 3.5
2017-Dec-04 00:30N 30°08' W 093°20'3 4.9
2017-Dec-03 23:59N 30°05' W 093°20'1 1.2
2017-Dec-03 23:27N 30°05' W 093°20'0 0.0
2017-Dec-03 22:56N 30°05' W 093°20'0 0.0
2017-Dec-03 22:30N 30°05' W 093°20'0 0.0
2017-Dec-03 22:00N 30°05' W 093°20'0 0.0
2017-Dec-03 21:30N 30°05' W 093°20'0 1.0
2017-Dec-03 21:00N 30°05' W 093°20'0 0.0
2017-Dec-03 20:30N 30°05' W 093°20'0 0.0
2017-Dec-03 20:00N 30°05' W 093°20'0 0.0
2017-Dec-03 19:30N 30°05' W 093°20'0 0.0
2017-Dec-03 19:00N 30°05' W 093°20'0 0.0
2017-Dec-03 18:30N 30°05' W 093°20'0 0.0
2017-Dec-03 18:00N 30°05' W 093°20'0 1.0
2017-Dec-03 17:30N 30°05' W 093°20'0 1.0
2017-Dec-03 17:00N 30°05' W 093°20'0 0.0
2017-Dec-03 16:30N 30°05' W 093°20'0 0.0
2017-Dec-03 16:00N 30°05' W 093°20'0 1.0
2017-Dec-03 15:30N 30°05' W 093°20'0 0.0
2017-Dec-03 15:00N 30°05' W 093°20'0 0.0
2017-Dec-03 14:26N 30°05' W 093°20'0 0.0
2017-Dec-03 13:58N 30°05' W 093°20'0 0.0
2017-Dec-03 13:16N 30°05' W 093°20'0 0.0
2017-Dec-03 12:58N 30°05' W 093°20'0 0.0
2017-Dec-03 12:29N 30°05' W 093°20'0 0.0
2017-Dec-03 12:00N 30°05' W 093°20'0 0.0
2017-Dec-03 11:30N 30°05' W 093°20'0 0.0
2017-Dec-03 10:54N 30°05' W 093°20'0 0.0
2017-Dec-03 10:30N 30°05' W 093°20'0 0.0
2017-Dec-03 10:00N 30°05' W 093°20'0 0.0
2017-Dec-03 09:30N 30°05' W 093°20'0 0.0
2017-Dec-03 08:57N 30°05' W 093°20'0 0.1
2017-Dec-03 08:30N 30°05' W 093°20'1 2.1
2017-Dec-03 08:00N 30°06' W 093°20'0 0.9
2017-Dec-03 07:30N 30°06' W 093°20'1 1.3
2017-Dec-03 06:51N 30°05' W 093°20'1 3.1
2017-Dec-03 06:30N 30°04' W 093°20'1 1.7
2017-Dec-03 05:56N 30°04' W 093°21'2 3.8
2017-Dec-03 05:30N 30°04' W 093°23'2 2.8
2017-Dec-03 04:55N 30°04' W 093°25'2 3.8
2017-Dec-03 04:30N 30°04' W 093°27'3 4.3
2017-Dec-03 03:55N 30°04' W 093°30'2 4.6
2017-Dec-03 03:30N 30°04' W 093°32'3 4.6
2017-Dec-03 02:55N 30°04' W 093°35'2 4.9
2017-Dec-03 02:25N 30°04' W 093°38'1 3.5
2017-Dec-03 02:00N 30°04' W 093°40'3 5.5
2017-Dec-03 01:28N 30°03' W 093°43'69 4.0
2017-Dec-02 08:16N 29°29' W 094°52'2 5.7
2017-Dec-02 08:00N 29°31' W 094°53'3 5.7
2017-Dec-02 07:30N 29°33' W 094°55'3 5.8
2017-Dec-02 07:00N 29°35' W 094°56'3 5.8
2017-Dec-02 06:30N 29°38' W 094°58'3 6.0
2017-Dec-02 06:00N 29°41' W 094°59'2 4.7
2017-Dec-02 05:30N 29°42' W 095°01'2 4.8
2017-Dec-02 05:00N 29°44' W 095°03'3 5.2
2017-Dec-02 04:30N 29°46' W 095°05'1 1.5
2017-Dec-02 03:58N 29°45' W 095°06'0 0.0
2017-Dec-02 03:19N 29°45' W 095°06'2 4.4
2017-Dec-02 02:56N 29°44' W 095°07'2 5.2
2017-Dec-02 02:28N 29°45' W 095°10'2 3.7
2017-Dec-02 02:00N 29°44' W 095°12'2 3.3
2017-Dec-02 01:30N 29°44' W 095°14'1 1.6
2017-Dec-02 01:00N 29°43' W 095°14'0 0.2
2017-Dec-02 00:30N 29°43' W 095°14'0 0.0
2017-Dec-02 00:00N 29°43' W 095°14'0 0.0
2017-Dec-01 23:30N 29°43' W 095°14'0 0.0
2017-Dec-01 23:00N 29°43' W 095°14'0 0.0
2017-Dec-01 22:30N 29°43' W 095°14'0 0.0
2017-Dec-01 22:00N 29°43' W 095°14'0 0.0
2017-Dec-01 21:30N 29°43' W 095°14'0 0.0
2017-Dec-01 21:00N 29°43' W 095°14'0 0.0
2017-Dec-01 20:30N 29°43' W 095°14'0 0.0
2017-Dec-01 20:00N 29°43' W 095°14'0 0.0
2017-Dec-01 19:30N 29°43' W 095°14'0 0.0
2017-Dec-01 19:00N 29°43' W 095°14'0 0.0
2017-Dec-01 18:30N 29°43' W 095°14'0 0.0
2017-Dec-01 18:00N 29°43' W 095°14'0 0.0
2017-Dec-01 17:30N 29°43' W 095°14'0 0.0
2017-Dec-01 17:00N 29°43' W 095°14'0 0.0
2017-Dec-01 16:30N 29°43' W 095°14'0 0.0
2017-Dec-01 16:00N 29°43' W 095°14'0 0.0
2017-Dec-01 15:30N 29°43' W 095°14'0 0.0
2017-Dec-01 15:00N 29°43' W 095°14'0 0.0
2017-Dec-01 14:30N 29°43' W 095°14'0 0.0
2017-Dec-01 14:00N 29°43' W 095°14'0 0.0
2017-Dec-01 13:30N 29°43' W 095°14'0 0.0
2017-Dec-01 13:00N 29°43' W 095°14'0 0.0
2017-Dec-01 12:30N 29°43' W 095°14'0 0.0
2017-Dec-01 12:00N 29°43' W 095°14'0 0.0
2017-Dec-01 11:30N 29°43' W 095°14'0 0.0
2017-Dec-01 11:00N 29°43' W 095°14'0 0.0
2017-Dec-01 10:30N 29°43' W 095°14'0 0.0
2017-Dec-01 10:00N 29°43' W 095°14'0 0.0
2017-Dec-01 09:30N 29°43' W 095°14'0 0.0
2017-Dec-01 09:00N 29°43' W 095°14'0 0.0
2017-Dec-01 08:30N 29°43' W 095°14'0 0.0
2017-Dec-01 08:00N 29°43' W 095°14'0 0.0
2017-Dec-01 07:30N 29°43' W 095°14'0 0.0
2017-Dec-01 07:00N 29°43' W 095°14'0 0.6
2017-Dec-01 06:30N 29°43' W 095°14'0 0.0
2017-Dec-01 06:00N 29°43' W 095°14'0 0.0
2017-Dec-01 05:30N 29°43' W 095°14'0 0.0
2017-Dec-01 05:00N 29°43' W 095°14'0 0.0
2017-Dec-01 04:30N 29°43' W 095°14'0 0.0
2017-Dec-01 04:00N 29°43' W 095°14'0 0.0
2017-Dec-01 03:30N 29°43' W 095°14'0 0.6
2017-Dec-01 02:59N 29°43' W 095°14'0 0.0
2017-Dec-01 02:30N 29°43' W 095°14'0 0.0
2017-Dec-01 02:00N 29°43' W 095°14'0 0.0
2017-Dec-01 01:30N 29°43' W 095°14'  
Track history (hours):
 
Tides and Currents Weather Stations Pressure Air Temp Water Temp Dewpoint Dewpoint Depression Visibility Wind Speed Wind Dir Waves Ship Positions

Scott Camp

Owner: Florida Marine Transporters, Inc., Mandeville, LA. More information available from US FCC via Universal Licensing System and Coast Guard Vessel Documentation Center.

Last reported at 2017-Dec-11 01:30 UTC. Time now 2017-Dec-11 01:58 UTC.
Position N 28°01' W 097°01'.

Length 27 m; draft 3.2 m.

Type: Towing. MMSI: 367437150.

Date/timePositionNaut miles runAvg speedWind from/ knotsBaromVisibWave heightAir tempDewpointWater temp
2017-Dec-11 01:30N 28°01' W 097°01'4 6.9
2017-Dec-11 00:59N 28°04' W 096°58'6 6.4
2017-Dec-11 00:06N 28°08' W 096°54'2 3.3
2017-Dec-10 23:21N 28°10' W 096°52'0 0.0
2017-Dec-10 22:58N 28°10' W 096°52'2 4.6
2017-Dec-10 22:29N 28°11' W 096°50'198 4.7
2017-Dec-09 04:24N 30°03' W 093°43'2 5.3
2017-Dec-09 04:00N 30°04' W 093°40'2 4.4
2017-Dec-09 03:30N 30°04' W 093°38'2 4.9
2017-Dec-09 03:00N 30°04' W 093°35'2 4.7
2017-Dec-09 02:30N 30°04' W 093°32'2 4.2
2017-Dec-09 02:00N 30°04' W 093°30'2 4.3
2017-Dec-09 01:30N 30°04' W 093°27'2 5.0
2017-Dec-09 01:00N 30°04' W 093°25'2 4.9
2017-Dec-09 00:30N 30°04' W 093°22'1 1.9
2017-Dec-09 00:00N 30°04' W 093°21'0 0.3
2017-Dec-08 23:30N 30°04' W 093°21'0 0.2
2017-Dec-08 23:01N 30°04' W 093°21'0 0.2
2017-Dec-08 22:30N 30°04' W 093°21'1 1.7
2017-Dec-08 22:00N 30°05' W 093°20'0 0.0
2017-Dec-08 21:30N 30°05' W 093°20'1 1.7
2017-Dec-08 21:00N 30°04' W 093°21'0 0.0
2017-Dec-08 20:30N 30°04' W 093°21'0 0.0
2017-Dec-08 20:00N 30°04' W 093°21'0 0.0
2017-Dec-08 19:30N 30°04' W 093°21'0 0.0
2017-Dec-08 19:00N 30°04' W 093°21'0 0.0
2017-Dec-08 18:30N 30°04' W 093°21'0 0.0
2017-Dec-08 12:30N 30°04' W 093°21'0 0.0
2017-Dec-08 10:38N 30°04' W 093°21'0 0.0
2017-Dec-08 10:30N 30°04' W 093°21'0 0.0
2017-Dec-08 10:00N 30°04' W 093°21'0 0.0
2017-Dec-08 09:30N 30°04' W 093°21'0 0.0
2017-Dec-08 09:00N 30°04' W 093°21'0 0.0
2017-Dec-08 08:30N 30°04' W 093°21'0 0.0
2017-Dec-08 08:00N 30°04' W 093°21'0 0.0
2017-Dec-08 07:30N 30°04' W 093°21'0 0.0
2017-Dec-08 07:00N 30°04' W 093°21'0 0.0
2017-Dec-08 06:30N 30°04' W 093°21'0 0.0
2017-Dec-08 06:00N 30°04' W 093°21'0 0.0
2017-Dec-08 05:30N 30°04' W 093°21'0 0.0
2017-Dec-08 05:00N 30°04' W 093°21'0 0.0
2017-Dec-08 04:30N 30°04' W 093°21'0 0.0
2017-Dec-08 04:00N 30°04' W 093°21'0 0.0
2017-Dec-08 03:30N 30°04' W 093°21'1 1.4
2017-Dec-08 03:00N 30°04' W 093°21'0 0.0
2017-Dec-08 02:30N 30°04' W 093°21'0 0.0
2017-Dec-08 02:00N 30°04' W 093°21'0 0.0
2017-Dec-08 01:30N 30°04' W 093°21'0 0.0
2017-Dec-08 01:00N 30°04' W 093°21'0 0.0
2017-Dec-08 00:30N 30°04' W 093°21'0 0.0
2017-Dec-08 00:00N 30°04' W 093°21'0 0.0
2017-Dec-07 23:30N 30°04' W 093°21'0 0.0
2017-Dec-07 23:00N 30°04' W 093°21'0 0.0
2017-Dec-07 22:30N 30°04' W 093°21'0 0.0
2017-Dec-07 22:00N 30°04' W 093°21'0 0.0
2017-Dec-07 21:30N 30°04' W 093°21'0 0.0
2017-Dec-07 21:00N 30°04' W 093°21'0 0.0
2017-Dec-07 20:30N 30°04' W 093°21'0 0.0
2017-Dec-07 20:00N 30°04' W 093°21'0 0.0
2017-Dec-07 19:30N 30°04' W 093°21'0 0.0
2017-Dec-07 19:00N 30°04' W 093°21'0 0.0
2017-Dec-07 18:30N 30°04' W 093°21'0 0.0
2017-Dec-07 18:00N 30°04' W 093°21'0 0.0
2017-Dec-07 17:30N 30°04' W 093°21'0 0.0
2017-Dec-07 17:00N 30°04' W 093°21'0 0.0
2017-Dec-07 16:30N 30°04' W 093°21'1 1.4
2017-Dec-07 16:00N 30°04' W 093°21'0 0.0
2017-Dec-07 15:30N 30°04' W 093°21'0 0.0
2017-Dec-07 15:00N 30°04' W 093°21'0 0.0
2017-Dec-07 14:30N 30°04' W 093°21'0 0.0
2017-Dec-07 14:00N 30°04' W 093°21'0 0.0
2017-Dec-07 13:30N 30°04' W 093°21'0 0.0
2017-Dec-07 13:00N 30°04' W 093°21'0 0.0
2017-Dec-07 12:30N 30°04' W 093°21'0 0.0
2017-Dec-07 12:00N 30°04' W 093°21'0 0.0
2017-Dec-07 11:30N 30°04' W 093°21'0 0.0
2017-Dec-07 11:00N 30°04' W 093°21'0 0.0
2017-Dec-07 10:30N 30°04' W 093°21'0 0.0
2017-Dec-07 10:00N 30°04' W 093°21'0 0.0
2017-Dec-07 09:30N 30°04' W 093°21'0 0.0
2017-Dec-07 09:00N 30°04' W 093°21'0 0.0
2017-Dec-07 08:30N 30°04' W 093°21'0 0.0
2017-Dec-07 08:00N 30°04' W 093°21'0 0.0
2017-Dec-07 07:30N 30°04' W 093°21'0 0.0
2017-Dec-07 07:00N 30°04' W 093°21'0 0.0
2017-Dec-07 06:30N 30°04' W 093°21'0 0.0
2017-Dec-07 06:00N 30°04' W 093°21'0 0.0
2017-Dec-07 05:30N 30°04' W 093°21'0 0.0
2017-Dec-07 05:00N 30°04' W 093°21'0 0.0
2017-Dec-07 04:30N 30°04' W 093°21'0 0.0
2017-Dec-07 04:00N 30°04' W 093°21'0 0.0
2017-Dec-07 03:30N 30°04' W 093°21'0 0.0
2017-Dec-07 03:00N 30°04' W 093°21'0 0.0
2017-Dec-07 02:30N 30°04' W 093°21'1 2.6
2017-Dec-07 02:00N 30°05' W 093°20'1 0.5
2017-Dec-06 23:11N 30°04' W 093°21'0 0.0
2017-Dec-06 23:00N 30°04' W 093°21'0 0.0
2017-Dec-06 22:30N 30°04' W 093°21'0 0.0
2017-Dec-06 22:00N 30°04' W 093°21'0 0.0
2017-Dec-06 21:30N 30°04' W 093°21'0 0.0
2017-Dec-06 21:00N 30°04' W 093°21'  
2017-Dec-04 10:30N 30°10' W 093°19'0 0.0
2017-Dec-04 10:00N 30°10' W 093°19'0 0.0
2017-Dec-04 09:30N 30°10' W 093°19'0 0.0
2017-Dec-04 09:00N 30°10' W 093°19'0 0.0
2017-Dec-04 08:30N 30°10' W 093°19'0 0.0
2017-Dec-04 08:00N 30°10' W 093°19'0 0.0
2017-Dec-04 07:30N 30°10' W 093°19'0 0.0
2017-Dec-04 07:00N 30°10' W 093°19'0 0.0
2017-Dec-04 06:30N 30°10' W 093°19'0 0.0
2017-Dec-04 06:00N 30°10' W 093°19'0 0.0
2017-Dec-04 05:30N 30°10' W 093°19'0 0.0
2017-Dec-04 05:00N 30°10' W 093°19'0 0.0
2017-Dec-04 04:30N 30°10' W 093°19'0 0.0
2017-Dec-04 04:00N 30°10' W 093°19'0 0.0
2017-Dec-04 03:30N 30°10' W 093°19'0 0.0
2017-Dec-04 03:00N 30°10' W 093°19'0 0.0
2017-Dec-04 02:30N 30°10' W 093°19'0 0.0
2017-Dec-04 02:00N 30°10' W 093°19'0 0.0
2017-Dec-04 01:30N 30°10' W 093°19'0 0.1
2017-Dec-04 01:00N 30°10' W 093°20'2 3.5
2017-Dec-04 00:30N 30°08' W 093°20'3 4.9
2017-Dec-03 23:59N 30°05' W 093°20'1 1.2
2017-Dec-03 23:27N 30°05' W 093°20'0 0.0
2017-Dec-03 22:56N 30°05' W 093°20'0 0.0
2017-Dec-03 22:30N 30°05' W 093°20'0 0.0
2017-Dec-03 22:00N 30°05' W 093°20'0 0.0
2017-Dec-03 21:30N 30°05' W 093°20'0 1.0
2017-Dec-03 21:00N 30°05' W 093°20'0 0.0
2017-Dec-03 20:30N 30°05' W 093°20'0 0.0
2017-Dec-03 20:00N 30°05' W 093°20'0 0.0
2017-Dec-03 19:30N 30°05' W 093°20'0 0.0
2017-Dec-03 19:00N 30°05' W 093°20'0 0.0
2017-Dec-03 18:30N 30°05' W 093°20'0 0.0
2017-Dec-03 18:00N 30°05' W 093°20'0 1.0
2017-Dec-03 17:30N 30°05' W 093°20'0 1.0
2017-Dec-03 17:00N 30°05' W 093°20'0 0.0
2017-Dec-03 16:30N 30°05' W 093°20'0 0.0
2017-Dec-03 16:00N 30°05' W 093°20'0 1.0
2017-Dec-03 15:30N 30°05' W 093°20'0 0.0
2017-Dec-03 15:00N 30°05' W 093°20'0 0.0
2017-Dec-03 14:26N 30°05' W 093°20'0 0.0
2017-Dec-03 13:58N 30°05' W 093°20'0 0.0
2017-Dec-03 13:16N 30°05' W 093°20'0 0.0
2017-Dec-03 12:58N 30°05' W 093°20'0 0.0
2017-Dec-03 12:29N 30°05' W 093°20'0 0.0
2017-Dec-03 12:00N 30°05' W 093°20'0 0.0
2017-Dec-03 11:30N 30°05' W 093°20'0 0.0
2017-Dec-03 10:54N 30°05' W 093°20'0 0.0
2017-Dec-03 10:30N 30°05' W 093°20'0 0.0
2017-Dec-03 10:00N 30°05' W 093°20'0 0.0
2017-Dec-03 09:30N 30°05' W 093°20'0 0.0
2017-Dec-03 08:57N 30°05' W 093°20'0 0.1
2017-Dec-03 08:30N 30°05' W 093°20'1 2.1
2017-Dec-03 08:00N 30°06' W 093°20'0 0.9
2017-Dec-03 07:30N 30°06' W 093°20'1 1.3
2017-Dec-03 06:51N 30°05' W 093°20'1 3.1
2017-Dec-03 06:30N 30°04' W 093°20'1 1.7
2017-Dec-03 05:56N 30°04' W 093°21'2 3.8
2017-Dec-03 05:30N 30°04' W 093°23'2 2.8
2017-Dec-03 04:55N 30°04' W 093°25'2 3.8
2017-Dec-03 04:30N 30°04' W 093°27'3 4.3
2017-Dec-03 03:55N 30°04' W 093°30'2 4.6
2017-Dec-03 03:30N 30°04' W 093°32'3 4.6
2017-Dec-03 02:55N 30°04' W 093°35'2 4.9
2017-Dec-03 02:25N 30°04' W 093°38'1 3.5
2017-Dec-03 02:00N 30°04' W 093°40'3 5.5
2017-Dec-03 01:28N 30°03' W 093°43'69 4.0
2017-Dec-02 08:16N 29°29' W 094°52'2 5.7
2017-Dec-02 08:00N 29°31' W 094°53'3 5.7
2017-Dec-02 07:30N 29°33' W 094°55'3 5.8
2017-Dec-02 07:00N 29°35' W 094°56'3 5.8
2017-Dec-02 06:30N 29°38' W 094°58'3 6.0
2017-Dec-02 06:00N 29°41' W 094°59'2 4.7
2017-Dec-02 05:30N 29°42' W 095°01'2 4.8
2017-Dec-02 05:00N 29°44' W 095°03'3 5.2
2017-Dec-02 04:30N 29°46' W 095°05'1 1.5
2017-Dec-02 03:58N 29°45' W 095°06'0 0.0
2017-Dec-02 03:19N 29°45' W 095°06'2 4.4
2017-Dec-02 02:56N 29°44' W 095°07'2 5.2
2017-Dec-02 02:28N 29°45' W 095°10'2 3.7
2017-Dec-02 02:00N 29°44' W 095°12'2 3.3
2017-Dec-02 01:30N 29°44' W 095°14'1 1.6
2017-Dec-02 01:00N 29°43' W 095°14'0 0.2
2017-Dec-02 00:30N 29°43' W 095°14'0 0.0
2017-Dec-02 00:00N 29°43' W 095°14'0 0.0
2017-Dec-01 23:30N 29°43' W 095°14'0 0.0
2017-Dec-01 23:00N 29°43' W 095°14'0 0.0
2017-Dec-01 22:30N 29°43' W 095°14'0 0.0
2017-Dec-01 22:00N 29°43' W 095°14'0 0.0
2017-Dec-01 21:30N 29°43' W 095°14'0 0.0
2017-Dec-01 21:00N 29°43' W 095°14'0 0.0
2017-Dec-01 20:30N 29°43' W 095°14'0 0.0
2017-Dec-01 20:00N 29°43' W 095°14'0 0.0
2017-Dec-01 19:30N 29°43' W 095°14'0 0.0
2017-Dec-01 19:00N 29°43' W 095°14'0 0.0
2017-Dec-01 18:30N 29°43' W 095°14'0 0.0
2017-Dec-01 18:00N 29°43' W 095°14'0 0.0
2017-Dec-01 17:30N 29°43' W 095°14'0 0.0
2017-Dec-01 17:00N 29°43' W 095°14'0 0.0
2017-Dec-01 16:30N 29°43' W 095°14'0 0.0
2017-Dec-01 16:00N 29°43' W 095°14'0 0.0
2017-Dec-01 15:30N 29°43' W 095°14'0 0.0
2017-Dec-01 15:00N 29°43' W 095°14'0 0.0
2017-Dec-01 14:30N 29°43' W 095°14'0 0.0
2017-Dec-01 14:00N 29°43' W 095°14'0 0.0
2017-Dec-01 13:30N 29°43' W 095°14'0 0.0
2017-Dec-01 13:00N 29°43' W 095°14'0 0.0
2017-Dec-01 12:30N 29°43' W 095°14'0 0.0
2017-Dec-01 12:00N 29°43' W 095°14'0 0.0
2017-Dec-01 11:30N 29°43' W 095°14'0 0.0
2017-Dec-01 11:00N 29°43' W 095°14'0 0.0
2017-Dec-01 10:30N 29°43' W 095°14'0 0.0
2017-Dec-01 10:00N 29°43' W 095°14'0 0.0
2017-Dec-01 09:30N 29°43' W 095°14'0 0.0
2017-Dec-01 09:00N 29°43' W 095°14'0 0.0
2017-Dec-01 08:30N 29°43' W 095°14'0 0.0
2017-Dec-01 08:00N 29°43' W 095°14'0 0.0
2017-Dec-01 07:30N 29°43' W 095°14'0 0.0
2017-Dec-01 07:00N 29°43' W 095°14'0 0.6
2017-Dec-01 06:30N 29°43' W 095°14'0 0.0
2017-Dec-01 06:00N 29°43' W 095°14'0 0.0
2017-Dec-01 05:30N 29°43' W 095°14'0 0.0
2017-Dec-01 05:00N 29°43' W 095°14'0 0.0
2017-Dec-01 04:30N 29°43' W 095°14'0 0.0
2017-Dec-01 04:00N 29°43' W 095°14'0 0.0
2017-Dec-01 03:30N 29°43' W 095°14'0 0.6
2017-Dec-01 02:59N 29°43' W 095°14'0 0.0
2017-Dec-01 02:30N 29°43' W 095°14'0 0.0
2017-Dec-01 02:00N 29°43' W 095°14'0 0.0
2017-Dec-01 01:30N 29°43' W 095°14'  

Dump ship's entire track history